Time,TemperatureF,DewpointF,PressureIn,WindDirection,WindDirectionDegrees,WindSpeedMPH,WindSpeedGustMPH,Humidity,HourlyPrecipIn,Conditions,Clouds,dailyrainin,SoftwareType,DateUTC
2013-08-23 00:00:00,72.5,67.7,29.97,South,189,0.0,0.0,85,0.00,,,0.00,Wunderground v.1.15,2013-08-23 05:00:00,
2013-08-23 00:10:00,72.5,68.1,29.97,South,189,0.0,0.0,86,0.00,,,0.00,Wunderground v.1.15,2013-08-23 05:10:00,
2013-08-23 00:20:00,72.3,67.9,29.98,South,189,0.0,0.0,86,0.00,,,0.00,Wunderground v.1.15,2013-08-23 05:20:00,
2013-08-23 00:30:00,72.0,67.9,29.97,South,189,0.0,0.0,87,0.00,,,0.00,Wunderground v.1.15,2013-08-23 05:30:00,
2013-08-23 00:40:00,71.8,67.7,29.97,South,189,0.0,0.0,87,0.00,,,0.00,Wunderground v.1.15,2013-08-23 05:40:00,
2013-08-23 00:50:00,71.6,67.9,29.98,South,188,0.0,0.0,88,0.00,,,0.00,Wunderground v.1.15,2013-08-23 05:50:00,
2013-08-23 01:00:00,71.5,67.8,29.98,South,188,0.0,0.0,88,0.00,,,0.00,Wunderground v.1.15,2013-08-23 06:00:00,
2013-08-23 01:10:00,71.3,67.6,29.98,South,188,0.0,1.0,88,0.00,,,0.00,Wunderground v.1.15,2013-08-23 06:10:00,
2013-08-23 01:20:00,71.3,67.9,29.98,South,188,0.0,1.0,89,0.00,,,0.00,Wunderground v.1.15,2013-08-23 06:20:00,
2013-08-23 01:30:00,71.1,67.7,29.98,South,188,0.0,1.0,89,0.00,,,0.00,Wunderground v.1.15,2013-08-23 06:30:00,
2013-08-23 01:40:00,70.9,67.5,29.98,South,187,0.0,1.0,89,0.00,,,0.00,Wunderground v.1.15,2013-08-23 06:40:00,
2013-08-23 01:50:00,70.8,67.4,29.98,South,187,0.0,1.0,89,0.00,,,0.00,Wunderground v.1.15,2013-08-23 06:50:00,
2013-08-23 02:00:00,70.8,67.7,29.98,South,182,0.0,1.0,90,0.00,,,0.00,Wunderground v.1.15,2013-08-23 07:00:00,
2013-08-23 02:10:00,70.6,67.5,29.98,East,100,0.0,1.0,90,0.00,,,0.00,Wunderground v.1.15,2013-08-23 07:10:00,
2013-08-23 02:20:00,70.6,67.5,29.98,ESE,103,0.0,1.0,90,0.00,,,0.00,Wunderground v.1.15,2013-08-23 07:20:00,
2013-08-23 02:30:00,70.4,67.3,29.98,ESE,103,0.0,1.0,90,0.00,,,0.00,Wunderground v.1.15,2013-08-23 07:30:00,
2013-08-23 02:40:00,70.3,67.5,29.98,ESE,103,0.0,1.0,91,0.00,,,0.00,Wunderground v.1.15,2013-08-23 07:40:00,
2013-08-23 02:50:00,70.3,67.5,29.98,SE,133,0.0,1.0,91,0.00,,,0.00,Wunderground v.1.15,2013-08-23 07:50:00,
2013-08-23 03:00:00,70.3,67.5,29.98,SE,134,0.0,1.0,91,0.00,,,0.00,Wunderground v.1.15,2013-08-23 08:00:00,
2013-08-23 03:10:00,70.1,67.3,29.98,SE,134,0.0,1.0,91,0.00,,,0.00,Wunderground v.1.15,2013-08-23 08:10:00,
2013-08-23 03:20:00,69.9,67.2,29.98,SE,136,0.0,1.0,91,0.00,,,0.00,Wunderground v.1.15,2013-08-23 08:20:00,
2013-08-23 03:30:00,69.8,67.4,29.98,SE,138,0.0,1.0,92,0.00,,,0.00,Wunderground v.1.15,2013-08-23 08:30:00,
2013-08-23 03:40:00,69.8,67.4,29.98,SE,138,0.0,1.0,92,0.00,,,0.00,Wunderground v.1.15,2013-08-23 08:40:00,
2013-08-23 03:50:00,69.6,67.2,29.98,SE,138,0.0,1.0,92,0.00,,,0.00,Wunderground v.1.15,2013-08-23 08:50:00,
2013-08-23 04:00:00,69.6,67.2,29.98,SE,138,0.0,1.0,92,0.00,,,0.00,Wunderground v.1.15,2013-08-23 09:00:00,
2013-08-23 04:10:00,69.4,67.0,29.98,SE,138,0.0,1.0,92,0.00,,,0.00,Wunderground v.1.15,2013-08-23 09:10:00,
2013-08-23 04:20:00,69.4,67.0,29.99,SE,138,0.0,1.0,92,0.00,,,0.00,Wunderground v.1.15,2013-08-23 09:20:00,
2013-08-23 04:30:00,69.4,67.0,29.99,SE,138,0.0,1.0,92,0.00,,,0.00,Wunderground v.1.15,2013-08-23 09:30:00,
2013-08-23 04:40:00,69.3,66.9,29.99,SE,139,0.0,1.0,92,0.00,,,0.00,Wunderground v.1.15,2013-08-23 09:40:00,
2013-08-23 04:50:00,69.3,66.9,29.99,SE,139,0.0,1.0,92,0.00,,,0.00,Wunderground v.1.15,2013-08-23 09:50:00,
2013-08-23 05:00:00,69.3,66.9,29.98,SE,139,0.0,1.0,92,0.00,,,0.00,Wunderground v.1.15,2013-08-23 10:00:00,
2013-08-23 05:10:00,69.1,67.0,29.98,SE,140,0.0,1.0,93,0.00,,,0.00,Wunderground v.1.15,2013-08-23 10:10:00,
2013-08-23 05:20:00,69.1,67.0,29.99,SE,140,0.0,1.0,93,0.00,,,0.00,Wunderground v.1.15,2013-08-23 10:20:00,
2013-08-23 05:30:00,68.9,66.8,29.98,SE,140,0.0,1.0,93,0.00,,,0.00,Wunderground v.1.15,2013-08-23 10:30:00,
2013-08-23 05:40:00,68.9,66.8,29.98,SE,140,0.0,1.0,93,0.00,,,0.00,Wunderground v.1.15,2013-08-23 10:40:00,
2013-08-23 05:50:00,68.8,66.7,29.99,SE,140,0.0,1.0,93,0.00,,,0.00,Wunderground v.1.15,2013-08-23 10:50:00,
2013-08-23 06:00:00,68.6,66.5,29.99,SE,140,0.0,1.0,93,0.00,,,0.00,Wunderground v.1.15,2013-08-23 11:00:00,
2013-08-23 06:10:00,68.6,66.5,29.99,SE,140,0.0,1.0,93,0.00,,,0.00,Wunderground v.1.15,2013-08-23 11:10:00,
2013-08-23 06:20:00,68.4,66.3,29.99,SE,140,0.0,1.0,93,0.00,,,0.00,Wunderground v.1.15,2013-08-23 11:20:00,
2013-08-23 06:30:00,68.4,66.6,29.99,SE,140,0.0,1.0,94,0.00,,,0.00,Wunderground v.1.15,2013-08-23 11:30:00,
2013-08-23 06:40:00,68.4,66.6,29.99,SE,140,0.0,1.0,94,0.00,,,0.00,Wunderground v.1.15,2013-08-23 11:40:00,
2013-08-23 06:50:00,68.4,66.6,29.99,SE,140,0.0,1.0,94,0.00,,,0.00,Wunderground v.1.15,2013-08-23 11:50:00,
2013-08-23 07:00:00,68.4,66.6,29.99,SE,140,0.0,1.0,94,0.00,,,0.00,Wunderground v.1.15,2013-08-23 12:00:00,
2013-08-23 07:10:00,68.4,66.6,29.99,SE,140,0.0,1.0,94,0.00,,,0.00,Wunderground v.1.15,2013-08-23 12:10:00,
2013-08-23 07:20:00,68.4,66.6,29.99,SE,140,0.0,1.0,94,0.00,,,0.00,Wunderground v.1.15,2013-08-23 12:20:00,
2013-08-23 07:30:00,68.6,66.8,29.99,SE,142,0.0,1.0,94,0.00,,,0.00,Wunderground v.1.15,2013-08-23 12:30:00,
2013-08-23 07:40:00,69.3,67.8,29.99,SE,142,0.0,1.0,95,0.00,,,0.00,Wunderground v.1.15,2013-08-23 12:40:00,
2013-08-23 07:50:00,69.6,68.1,29.99,SE,132,0.0,1.0,95,0.00,,,0.00,Wunderground v.1.15,2013-08-23 12:50:00,
2013-08-23 08:00:00,69.8,68.3,30.00,SE,132,0.0,1.0,95,0.00,,,0.00,Wunderground v.1.15,2013-08-23 13:00:00,
2013-08-23 08:10:00,69.9,68.4,30.00,ESE,115,0.0,1.0,95,0.00,,,0.00,Wunderground v.1.15,2013-08-23 13:10:00,
2013-08-23 08:20:00,70.3,68.8,30.00,ESE,111,0.0,1.0,95,0.00,,,0.00,Wunderground v.1.15,2013-08-23 13:20:00,
2013-08-23 08:30:00,70.3,68.8,29.99,South,171,0.0,1.0,95,0.00,,,0.00,Wunderground v.1.15,2013-08-23 13:30:00,
2013-08-23 08:40:00,70.4,68.9,29.99,South,170,0.0,1.0,95,0.00,,,0.00,Wunderground v.1.15,2013-08-23 13:40:00,
2013-08-23 08:50:00,70.6,69.1,30.00,South,181,0.0,1.0,95,0.00,,,0.00,Wunderground v.1.15,2013-08-23 13:50:00,
2013-08-23 09:00:00,70.8,69.3,30.00,South,181,0.0,1.0,95,0.00,,,0.00,Wunderground v.1.15,2013-08-23 14:00:00,
2013-08-23 09:10:00,71.1,69.6,30.00,South,184,0.0,1.0,95,0.00,,,0.00,Wunderground v.1.15,2013-08-23 14:10:00,
2013-08-23 09:20:00,71.8,70.3,30.00,South,184,0.0,1.0,95,0.00,,,0.00,Wunderground v.1.15,2013-08-23 14:20:00,
2013-08-23 09:30:00,72.1,70.3,30.00,South,182,0.0,1.0,94,0.00,,,0.00,Wunderground v.1.15,2013-08-23 14:30:00,
2013-08-23 09:40:00,72.8,71.0,30.00,South,177,0.0,1.0,94,0.00,,,0.00,Wunderground v.1.15,2013-08-23 14:40:00,
2013-08-23 09:50:00,73.3,71.2,30.00,SSE,150,0.0,1.0,93,0.00,,,0.00,Wunderground v.1.15,2013-08-23 14:50:00,
2013-08-23 10:00:00,73.9,71.4,30.01,East,82,0.0,1.0,92,0.00,,,0.00,Wunderground v.1.15,2013-08-23 15:00:00,
2013-08-23 10:10:00,74.2,71.4,30.01,SSE,168,0.0,1.0,91,0.00,,,0.00,Wunderground v.1.15,2013-08-23 15:10:00,
2013-08-23 10:20:00,74.7,71.2,30.01,SSE,153,0.0,1.0,89,0.00,,,0.00,Wunderground v.1.15,2013-08-23 15:20:00,
2013-08-23 10:30:00,75.4,71.9,30.01,SSE,155,0.0,1.0,89,0.00,,,0.00,Wunderground v.1.15,2013-08-23 15:30:00,
2013-08-23 10:40:00,75.8,71.7,30.01,SSE,159,0.0,1.0,87,0.00,,,0.00,Wunderground v.1.15,2013-08-23 15:40:00,
2013-08-23 10:50:00,76.5,71.7,30.01,SSE,149,0.0,1.0,85,0.00,,,0.00,Wunderground v.1.15,2013-08-23 15:50:00,
2013-08-23 11:00:00,77.6,72.0,30.01,SSE,157,0.0,1.0,83,0.00,,,0.00,Wunderground v.1.15,2013-08-23 16:00:00,
2013-08-23 11:10:00,78.5,72.5,30.01,ENE,57,0.0,1.0,82,0.00,,,0.00,Wunderground v.1.15,2013-08-23 16:10:00,
2013-08-23 11:20:00,79.0,71.9,30.01,ESE,123,0.0,1.0,79,0.00,,,0.00,Wunderground v.1.15,2013-08-23 16:20:00,
2013-08-23 11:30:00,79.9,72.0,30.01,East,92,0.0,1.0,77,0.00,,,0.00,Wunderground v.1.15,2013-08-23 16:30:00,
2013-08-23 11:40:00,80.7,72.0,30.01,East,89,0.0,1.0,75,0.00,,,0.00,Wunderground v.1.15,2013-08-23 16:40:00,
2013-08-23 11:50:00,81.2,72.5,30.00,East,92,0.0,1.0,75,0.00,,,0.00,Wunderground v.1.15,2013-08-23 16:50:00,
2013-08-23 12:00:00,81.6,72.9,29.99,SW,219,0.0,1.0,75,0.00,,,0.00,Wunderground v.1.15,2013-08-23 17:00:00,
2013-08-23 12:10:00,81.4,71.9,29.99,SSW,207,0.0,1.0,73,0.00,,,0.00,Wunderground v.1.15,2013-08-23 17:10:00,
2013-08-23 12:20:00,82.2,71.9,29.99,SSE,159,0.0,1.0,71,0.00,,,0.00,Wunderground v.1.15,2013-08-23 17:20:00,
2013-08-23 12:30:00,82.2,72.3,29.99,East,79,0.0,1.0,72,0.00,,,0.00,Wunderground v.1.15,2013-08-23 17:30:00,
2013-08-23 12:40:00,82.2,72.3,29.99,South,178,0.0,4.0,72,0.00,,,0.00,Wunderground v.1.15,2013-08-23 17:40:00,
2013-08-23 12:50:00,83.2,72.4,29.99,South,186,0.0,1.0,70,0.00,,,0.00,Wunderground v.1.15,2013-08-23 17:50:00,
2013-08-23 13:00:00,83.6,71.5,29.98,ENE,75,0.0,1.0,67,0.00,,,0.00,Wunderground v.1.15,2013-08-23 18:00:00,
2013-08-23 13:10:00,84.5,72.3,29.98,SSE,168,0.0,5.0,67,0.00,,,0.00,Wunderground v.1.15,2013-08-23 18:10:00,
2013-08-23 13:20:00,85.3,72.2,29.97,SSW,198,0.0,1.0,65,0.00,,,0.00,Wunderground v.1.15,2013-08-23 18:20:00,
2013-08-23 13:30:00,85.1,71.1,29.97,South,173,0.0,1.0,63,0.00,,,0.00,Wunderground v.1.15,2013-08-23 18:30:00,
2013-08-23 13:40:00,85.3,70.8,29.97,South,178,0.0,1.0,62,0.00,,,0.00,Wunderground v.1.15,2013-08-23 18:40:00,
2013-08-23 13:50:00,85.5,71.9,29.97,NE,55,0.0,1.0,64,0.00,,,0.00,Wunderground v.1.15,2013-08-23 18:50:00,
2013-08-23 14:00:00,86.5,70.5,29.96,SSW,199,0.0,3.0,59,0.00,,,0.00,Wunderground v.1.15,2013-08-23 19:00:00,
2013-08-23 14:10:00,85.9,69.9,29.96,SSE,166,0.0,1.0,59,0.00,,,0.00,Wunderground v.1.15,2013-08-23 19:10:00,
2013-08-23 14:20:00,86.3,70.3,29.96,South,177,0.0,1.0,59,0.00,,,0.00,Wunderground v.1.15,2013-08-23 19:20:00,
2013-08-23 14:30:00,87.2,71.6,29.96,SSW,202,0.0,1.0,60,0.00,,,0.00,Wunderground v.1.15,2013-08-23 19:30:00,
2013-08-23 14:40:00,87.2,71.6,29.96,SSE,160,0.0,1.0,60,0.00,,,0.00,Wunderground v.1.15,2013-08-23 19:40:00,
2013-08-23 14:50:00,87.0,71.4,29.95,SW,216,0.0,1.0,60,0.00,,,0.00,Wunderground v.1.15,2013-08-23 19:50:00,
2013-08-23 15:00:00,88.0,71.4,29.94,NE,51,0.0,1.0,58,0.00,,,0.00,Wunderground v.1.15,2013-08-23 20:00:00,
2013-08-23 15:10:00,87.8,70.7,29.94,ESE,105,0.0,1.0,57,0.00,,,0.00,Wunderground v.1.15,2013-08-23 20:10:00,
2013-08-23 15:20:00,88.0,70.3,29.94,SW,214,0.0,1.0,56,0.00,,,0.00,Wunderground v.1.15,2013-08-23 20:20:00,
2013-08-23 15:30:00,86.3,70.8,29.94,SSW,193,0.0,1.0,60,0.00,,,0.00,Wunderground v.1.15,2013-08-23 20:30:00,
2013-08-23 15:40:00,88.2,70.0,29.94,East,80,0.0,1.0,55,0.00,,,0.00,Wunderground v.1.15,2013-08-23 20:40:00,
2013-08-23 15:50:00,88.0,69.3,29.94,SW,220,0.0,1.0,54,0.00,,,0.00,Wunderground v.1.15,2013-08-23 20:50:00,
2013-08-23 16:00:00,88.2,70.0,29.93,SSW,194,0.0,1.0,55,0.00,,,0.00,Wunderground v.1.15,2013-08-23 21:00:00,
2013-08-23 16:10:00,87.8,70.1,29.93,SSW,197,0.0,1.0,56,0.00,,,0.00,Wunderground v.1.15,2013-08-23 21:10:00,
2013-08-23 16:20:00,88.0,68.7,29.93,SSW,198,0.0,1.0,53,0.00,,,0.00,Wunderground v.1.15,2013-08-23 21:20:00,
2013-08-23 16:30:00,88.6,68.2,29.93,SW,229,0.0,1.0,51,0.00,,,0.00,Wunderground v.1.15,2013-08-23 21:30:00,
2013-08-23 16:40:00,88.2,67.8,29.93,ENE,71,0.0,1.0,51,0.00,,,0.00,Wunderground v.1.15,2013-08-23 21:40:00,
2013-08-23 16:50:00,88.2,67.8,29.92,SE,136,0.0,1.0,51,0.00,,,0.00,Wunderground v.1.15,2013-08-23 21:50:00,
2013-08-23 17:00:00,87.8,70.1,29.92,ENE,71,0.0,1.0,56,0.00,,,0.00,Wunderground v.1.15,2013-08-23 22:00:00,
2013-08-23 17:10:00,87.8,70.1,29.92,East,90,0.0,1.0,56,0.00,,,0.00,Wunderground v.1.15,2013-08-23 22:10:00,
2013-08-23 17:20:00,87.8,70.1,29.92,East,85,0.0,1.0,56,0.00,,,0.00,Wunderground v.1.15,2013-08-23 22:20:00,
2013-08-23 17:30:00,87.6,70.5,29.92,ENE,63,0.0,1.0,57,0.00,,,0.00,Wunderground v.1.15,2013-08-23 22:30:00,
2013-08-23 17:40:00,87.4,70.3,29.92,ENE,78,0.0,1.0,57,0.00,,,0.00,Wunderground v.1.15,2013-08-23 22:40:00,
2013-08-23 17:50:00,87.6,70.5,29.92,ENE,72,0.0,1.0,57,0.00,,,0.00,Wunderground v.1.15,2013-08-23 22:50:00,
2013-08-23 18:00:00,87.0,70.9,29.91,ENE,74,0.0,1.0,59,0.00,,,0.00,Wunderground v.1.15,2013-08-23 23:00:00,
2013-08-23 18:10:00,86.7,71.2,29.91,ESE,103,0.0,1.0,60,0.00,,,0.00,Wunderground v.1.15,2013-08-23 23:10:00,
2013-08-23 18:20:00,86.1,70.6,29.91,South,169,0.0,1.0,60,0.00,,,0.00,Wunderground v.1.15,2013-08-23 23:20:00,
2013-08-23 18:30:00,86.1,71.6,29.91,ESE,103,0.0,1.0,62,0.00,,,0.00,Wunderground v.1.15,2013-08-23 23:30:00,
2013-08-23 18:40:00,85.5,71.0,29.91,East,81,0.0,1.0,62,0.00,,,0.00,Wunderground v.1.15,2013-08-23 23:40:00,
2013-08-23 18:50:00,85.3,71.3,29.91,NE,52,0.0,1.0,63,0.00,,,0.00,Wunderground v.1.15,2013-08-23 23:50:00,
2013-08-23 19:00:00,85.1,71.1,29.91,ENE,67,0.0,1.0,63,0.00,,,0.00,Wunderground v.1.15,2013-08-24 00:00:00,
2013-08-23 19:10:00,85.3,70.8,29.91,ENE,65,0.0,1.0,62,0.00,,,0.00,Wunderground v.1.15,2013-08-24 00:10:00,
2013-08-23 19:20:00,85.3,70.8,29.91,ENE,65,0.0,1.0,62,0.00,,,0.00,Wunderground v.1.15,2013-08-24 00:20:00,
2013-08-23 19:30:00,84.9,70.9,29.91,ENE,65,0.0,1.0,63,0.00,,,0.00,Wunderground v.1.15,2013-08-24 00:30:00,
2013-08-23 19:40:00,84.5,71.0,29.91,South,184,0.0,1.0,64,0.00,,,0.00,Wunderground v.1.15,2013-08-24 00:40:00,
2013-08-23 19:50:00,84.1,71.1,29.91,South,182,0.0,1.0,65,0.00,,,0.00,Wunderground v.1.15,2013-08-24 00:50:00,
2013-08-23 20:00:00,83.8,70.8,29.91,South,172,0.0,1.0,65,0.00,,,0.00,Wunderground v.1.15,2013-08-24 01:00:00,
2013-08-23 20:10:00,83.2,70.7,29.91,South,173,0.0,1.0,66,0.00,,,0.00,Wunderground v.1.15,2013-08-24 01:10:00,
2013-08-23 20:20:00,82.6,70.5,29.92,SSE,161,0.0,1.0,67,0.00,,,0.00,Wunderground v.1.15,2013-08-24 01:20:00,
2013-08-23 20:30:00,82.2,70.6,29.92,SE,130,0.0,1.0,68,0.00,,,0.00,Wunderground v.1.15,2013-08-24 01:30:00,
2013-08-23 20:40:00,81.6,70.4,29.92,SE,126,0.0,1.0,69,0.00,,,0.00,Wunderground v.1.15,2013-08-24 01:40:00,
2013-08-23 20:50:00,81.2,70.5,29.92,SE,126,0.0,1.0,70,0.00,,,0.00,Wunderground v.1.15,2013-08-24 01:50:00,
2013-08-23 21:00:00,80.9,70.2,29.93,ENE,67,0.0,1.0,70,0.00,,,0.00,Wunderground v.1.15,2013-08-24 02:00:00,
2013-08-23 21:10:00,80.3,70.0,29.93,ESE,114,0.0,1.0,71,0.00,,,0.00,Wunderground v.1.15,2013-08-24 02:10:00,
2013-08-23 21:20:00,79.9,69.7,29.94,ESE,116,0.0,1.0,71,0.00,,,0.00,Wunderground v.1.15,2013-08-24 02:20:00,
2013-08-23 21:30:00,79.6,69.8,29.94,East,79,0.0,1.0,72,0.00,,,0.00,Wunderground v.1.15,2013-08-24 02:30:00,
2013-08-23 21:40:00,79.4,70.0,29.94,East,79,0.0,1.0,73,0.00,,,0.00,Wunderground v.1.15,2013-08-24 02:40:00,
2013-08-23 21:50:00,79.0,69.6,29.94,SE,134,0.0,1.0,73,0.00,,,0.00,Wunderground v.1.15,2013-08-24 02:50:00,
2013-08-23 22:00:00,78.6,69.2,29.94,SE,136,0.0,1.0,73,0.00,,,0.00,Wunderground v.1.15,2013-08-24 03:00:00,
2013-08-23 22:10:00,78.3,69.3,29.94,SE,134,0.0,1.0,74,0.00,,,0.00,Wunderground v.1.15,2013-08-24 03:10:00,
2013-08-23 22:20:00,78.1,69.1,29.94,SE,136,0.0,1.0,74,0.00,,,0.00,Wunderground v.1.15,2013-08-24 03:20:00,
2013-08-23 22:30:00,77.7,68.7,29.94,East,99,0.0,1.0,74,0.00,,,0.00,Wunderground v.1.15,2013-08-24 03:30:00,
2013-08-23 22:40:00,77.4,68.9,29.94,East,98,0.0,1.0,75,0.00,,,0.00,Wunderground v.1.15,2013-08-24 03:40:00,
2013-08-23 22:50:00,77.2,68.7,29.94,East,98,0.0,1.0,75,0.00,,,0.00,Wunderground v.1.15,2013-08-24 03:50:00,
2013-08-23 23:00:00,77.0,68.1,29.94,ESE,103,0.0,1.0,74,0.00,,,0.00,Wunderground v.1.15,2013-08-24 04:00:00,
2013-08-23 23:10:00,76.8,68.3,29.94,East,84,0.0,1.0,75,0.00,,,0.00,Wunderground v.1.15,2013-08-24 04:10:00,
2013-08-23 23:20:00,76.7,68.2,29.94,East,88,0.0,1.0,75,0.00,,,0.00,Wunderground v.1.15,2013-08-24 04:20:00,
2013-08-23 23:30:00,76.5,68.0,29.94,SE,128,0.0,1.0,75,0.00,,,0.00,Wunderground v.1.15,2013-08-24 04:30:00,
2013-08-23 23:40:00,76.3,67.8,29.94,East,79,0.0,1.0,75,0.00,,,0.00,Wunderground v.1.15,2013-08-24 04:40:00,
2013-08-23 23:50:00,76.3,67.8,29.94,East,90,0.0,1.0,75,0.00,,,0.00,Wunderground v.1.15,2013-08-24 04:50:00,